Friday, January 18, 2019, 2:37 AM EST
Back to Local

KABE, Lehigh Valley International Airport

Location: Allentown, PA, United States Lat: 40.65
Local Time: 2:37 AM EST ( 7:37 GMT) Lon: -75.45
Time Zone: US/Eastern Elev: 393 ft

Show me the last for .
Show Decoded

2019-01-18 01:51 METAR KABE 180651Z 09005KT 9SM OVC025 M02/M06 A3016 RMK AO2 SNE29 SLP216 P0001
                 T10221056 =
2019-01-18 00:51 METAR KABE 180551Z 08004KT 4SM -SN OVC027 M02/M06 A3017 RMK AO2 SNE0458B22
                 SLP223 P0000 60000 T10221056 11006 21022 58015 =
2019-01-18 00:16 METAR KABE 180516Z 10005KT 10SM OVC028 M02/M06 A3019 RMK AO2 SNE0458 P0000
                 T10171061 =
2019-01-17 23:51 METAR KABE 180451Z 09005KT 9SM -SN OVC032 M02/M06 A3020 RMK AO2 SLP231 P0000
                 T10171061 400061056 =
2019-01-17 22:51 METAR KABE 180351Z 10004KT 9SM -SN OVC032 M01/M08 A3022 RMK AO2 SNB23 SLP236
                 P0000 T10111083 =
2019-01-17 21:51 METAR KABE 180251Z 00000KT 10SM BKN036 OVC048 M01/M10 A3022 RMK AO2 SLP238
                 T10061100 56015 =
2019-01-17 20:51 METAR KABE 180151Z 11003KT 10SM FEW050 OVC095 M01/M12 A3023 RMK AO2 SLP241
                 T10061122 =
2019-01-17 19:51 METAR KABE 180051Z AUTO 10003KT 10SM OVC044 M01/M16 A3025 RMK AO2 SLP250
                 T10061156 =
2019-01-17 18:51 METAR KABE 172351Z 14005KT 10SM OVC043 M01/M16 A3026 RMK AO2 SLP254 T10061161
                 10006 21011 56003 =
2019-01-17 17:51 METAR KABE 172251Z 14005KT 10SM FEW120 M01/M16 A3027 RMK AO2 SLP256 T10061161 =
2019-01-17 16:51 METAR KABE 172151Z 16006KT 10SM FEW120 00/M16 A3027 RMK AO2 SLP255 T00001161 =
2019-01-17 15:51 METAR KABE 172051Z 13005KT 10SM BKN110 01/M15 A3027 RMK AO2 SLP256 T00061150
                 55021 =
2019-01-17 14:51 METAR KABE 171951Z 07007KT 10SM FEW120 00/M15 A3027 RMK AO2 SLP254 T00001150 =
2019-01-17 13:51 METAR KABE 171851Z 09006KT 10SM CLR M01/M15 A3030 RMK AO2 SLP266 T10061150 =
2019-01-17 12:51 METAR KABE 171751Z VRB03KT 10SM CLR M01/M16 A3034 RMK AO2 SLP277 T10111156 11006
                 21056 58022 =
2019-01-17 11:51 METAR KABE 171651Z 08005KT 10SM CLR M01/M14 A3036 RMK AO2 SLP287 T10111144 =
2019-01-17 10:51 METAR KABE 171551Z VRB03KT 10SM CLR M02/M14 A3041 RMK AO2 SLP302 T10221144 =
2019-01-17 09:51 METAR KABE 171451Z AUTO 08006KT 10SM CLR M03/M13 A3040 RMK AO2 SLP299 T10281133
                 51013 =
2019-01-17 08:51 METAR KABE 171351Z 07003KT 10SM CLR M03/M13 A3040 RMK AO2 SLP298 T10331133 =
2019-01-17 07:51 METAR KABE 171251Z 02004KT 10SM CLR M06/M13 A3038 RMK AO2 SLP292 T10561133 =
2019-01-17 06:51 METAR KABE 171151Z 00000KT 10SM CLR M06/M13 A3036 RMK AO2 SLP286 T10561128 11011
                 21056 53014 =
2019-01-17 05:51 METAR KABE 171051Z 02004KT 10SM CLR M04/M13 A3035 RMK AO2 SLP282 T10441133 =
2019-01-17 04:51 METAR KABE 170951Z 01006KT 10SM CLR M04/M12 A3033 RMK AO2 SLP275 T10441117 =
2019-01-17 03:51 METAR KABE 170851Z 36009KT 10SM CLR M04/M12 A3032 RMK AO2 SLP273 T10391117 51017
                 =
2019-01-17 02:51 METAR KABE 170751Z 01006KT 10SM CLR M03/M10 A3031 RMK AO2 SLP270 T10281100 =

Support USWX by starting your Amazon purchase here.